sensor_id;sensor_type;location;lat;lon;timestamp;pressure;altitude;pressure_sealevel;temperature;humidity
81511;BME280;70931;48.796;8.440;2023-12-22T00:00:17;96085.41;;;7.49;85.61
81511;BME280;70931;48.796;8.440;2023-12-22T00:02:42;96113.88;;;7.55;83.39
81511;BME280;70931;48.796;8.440;2023-12-22T00:05:08;96110.47;;;7.61;84.67
81511;BME280;70931;48.796;8.440;2023-12-22T00:07:33;96089.59;;;7.58;83.10
81511;BME280;70931;48.796;8.440;2023-12-22T00:09:58;96108.56;;;7.55;83.33
81511;BME280;70931;48.796;8.440;2023-12-22T00:12:24;96098.16;;;7.68;84.05
81511;BME280;70931;48.796;8.440;2023-12-22T00:14:49;96108.31;;;7.79;83.87
81511;BME280;70931;48.796;8.440;2023-12-22T00:17:14;96120.22;;;7.83;83.30
81511;BME280;70931;48.796;8.440;2023-12-22T00:19:39;96113.75;;;7.48;83.71
81511;BME280;70931;48.796;8.440;2023-12-22T00:22:04;96118.50;;;7.53;83.79
81511;BME280;70931;48.796;8.440;2023-12-22T00:24:30;96117.31;;;7.55;83.17
81511;BME280;70931;48.796;8.440;2023-12-22T00:26:55;96112.50;;;7.59;82.86
81511;BME280;70931;48.796;8.440;2023-12-22T00:29:20;96131.34;;;7.64;82.75
81511;BME280;70931;48.796;8.440;2023-12-22T00:31:45;96162.25;;;7.57;82.61
81511;BME280;70931;48.796;8.440;2023-12-22T00:34:11;96171.09;;;7.72;82.70
81511;BME280;70931;48.796;8.440;2023-12-22T00:36:36;96145.44;;;7.64;82.77
81511;BME280;70931;48.796;8.440;2023-12-22T00:39:01;96120.16;;;7.54;82.26
81511;BME280;70931;48.796;8.440;2023-12-22T00:41:26;96114.50;;;7.57;81.92
81511;BME280;70931;48.796;8.440;2023-12-22T00:43:52;96148.91;;;7.65;81.70
81511;BME280;70931;48.796;8.440;2023-12-22T00:46:17;96138.94;;;7.67;81.38
81511;BME280;70931;48.796;8.440;2023-12-22T00:48:42;96147.03;;;7.73;81.40
81511;BME280;70931;48.796;8.440;2023-12-22T00:51:08;96110.91;;;7.50;80.89
81511;BME280;70931;48.796;8.440;2023-12-22T00:53:33;96101.31;;;7.49;80.99
81511;BME280;70931;48.796;8.440;2023-12-22T00:55:59;96123.34;;;7.72;81.19
81511;BME280;70931;48.796;8.440;2023-12-22T00:58:25;96125.75;;;7.59;79.91
81511;BME280;70931;48.796;8.440;2023-12-22T01:00:50;96165.91;;;7.56;79.19
81511;BME280;70931;48.796;8.440;2023-12-22T01:03:15;96140.50;;;7.61;78.67
81511;BME280;70931;48.796;8.440;2023-12-22T01:05:40;96137.16;;;7.44;79.06
81511;BME280;70931;48.796;8.440;2023-12-22T01:08:05;96143.50;;;7.58;78.98
81511;BME280;70931;48.796;8.440;2023-12-22T01:10:31;96164.50;;;7.22;80.76
81511;BME280;70931;48.796;8.440;2023-12-22T01:12:56;96198.63;;;7.25;80.63
81511;BME280;70931;48.796;8.440;2023-12-22T01:15:21;96163.53;;;7.15;80.95
81511;BME280;70931;48.796;8.440;2023-12-22T01:17:46;96186.72;;;7.21;81.51
81511;BME280;70931;48.796;8.440;2023-12-22T01:20:12;96149.88;;;7.26;81.03
81511;BME280;70931;48.796;8.440;2023-12-22T01:22:37;96186.00;;;7.27;80.75
81511;BME280;70931;48.796;8.440;2023-12-22T01:25:02;96150.91;;;6.95;80.34
81511;BME280;70931;48.796;8.440;2023-12-22T01:27:28;96177.75;;;7.22;80.44
81511;BME280;70931;48.796;8.440;2023-12-22T01:29:53;96177.75;;;7.22;80.75
81511;BME280;70931;48.796;8.440;2023-12-22T01:32:18;96166.47;;;7.20;81.52
81511;BME280;70931;48.796;8.440;2023-12-22T01:34:43;96168.38;;;7.12;80.89
81511;BME280;70931;48.796;8.440;2023-12-22T01:37:09;96201.38;;;7.32;80.66
81511;BME280;70931;48.796;8.440;2023-12-22T01:39:34;96195.97;;;7.25;81.08
81511;BME280;70931;48.796;8.440;2023-12-22T01:41:59;96172.59;;;6.98;82.16
81511;BME280;70931;48.796;8.440;2023-12-22T01:44:25;96243.09;;;7.15;81.80
81511;BME280;70931;48.796;8.440;2023-12-22T01:46:50;96248.56;;;7.14;81.53
81511;BME280;70931;48.796;8.440;2023-12-22T01:49:16;96244.16;;;7.29;81.59
81511;BME280;70931;48.796;8.440;2023-12-22T01:51:42;96247.63;;;7.37;81.41
81511;BME280;70931;48.796;8.440;2023-12-22T01:54:08;96216.72;;;7.22;81.00
81511;BME280;70931;48.796;8.440;2023-12-22T01:56:35;96215.66;;;7.31;80.96
81511;BME280;70931;48.796;8.440;2023-12-22T01:59:01;96237.59;;;7.47;80.53
81511;BME280;70931;48.796;8.440;2023-12-22T02:01:27;96235.94;;;7.46;80.63
81511;BME280;70931;48.796;8.440;2023-12-22T02:03:53;96234.59;;;7.51;81.33
81511;BME280;70931;48.796;8.440;2023-12-22T02:06:19;96216.44;;;7.39;81.07
81511;BME280;70931;48.796;8.440;2023-12-22T02:08:46;96215.06;;;7.43;81.05
81511;BME280;70931;48.796;8.440;2023-12-22T02:11:11;96207.44;;;7.49;80.71
81511;BME280;70931;48.796;8.440;2023-12-22T02:13:37;96195.97;;;7.25;81.46
81511;BME280;70931;48.796;8.440;2023-12-22T02:16:11;96210.31;;;7.62;80.13
81511;BME280;70931;48.796;8.440;2023-12-22T02:18:43;96201.16;;;7.41;81.16
81511;BME280;70931;48.796;8.440;2023-12-22T02:21:11;96205.19;;;7.37;80.96
81511;BME280;70931;48.796;8.440;2023-12-22T02:23:36;96204.16;;;7.61;79.91
81511;BME280;70931;48.796;8.440;2023-12-22T02:26:28;96187.00;;;7.49;81.17
81511;BME280;70931;48.796;8.440;2023-12-22T02:28:58;96192.16;;;7.51;81.13
81511;BME280;70931;48.796;8.440;2023-12-22T02:31:38;96190.41;;;7.58;80.34
81511;BME280;70931;48.796;8.440;2023-12-22T02:34:07;96196.41;;;7.37;79.87
81511;BME280;70931;48.796;8.440;2023-12-22T02:36:36;96160.13;;;7.29;79.70
81511;BME280;70931;48.796;8.440;2023-12-22T02:39:02;96214.97;;;7.37;79.36
81511;BME280;70931;48.796;8.440;2023-12-22T02:41:28;96215.84;;;7.52;79.44
81511;BME280;70931;48.796;8.440;2023-12-22T02:43:53;96231.44;;;7.24;79.03
81511;BME280;70931;48.796;8.440;2023-12-22T02:46:19;96237.34;;;7.34;78.25
81511;BME280;70931;48.796;8.440;2023-12-22T02:48:44;96228.91;;;7.31;77.50
81511;BME280;70931;48.796;8.440;2023-12-22T02:51:09;96236.28;;;7.43;76.91
81511;BME280;70931;48.796;8.440;2023-12-22T02:53:34;96218.03;;;7.49;76.09
81511;BME280;70931;48.796;8.440;2023-12-22T02:56:00;96215.38;;;7.49;75.77
81511;BME280;70931;48.796;8.440;2023-12-22T02:58:25;96202.16;;;7.40;76.64
81511;BME280;70931;48.796;8.440;2023-12-22T03:00:50;96213.91;;;7.46;75.83
81511;BME280;70931;48.796;8.440;2023-12-22T03:03:15;96197.84;;;7.17;77.78
81511;BME280;70931;48.796;8.440;2023-12-22T03:05:40;96190.25;;;7.36;75.47
81511;BME280;70931;48.796;8.440;2023-12-22T03:08:06;96205.88;;;7.54;75.69
81511;BME280;70931;48.796;8.440;2023-12-22T03:10:31;96211.13;;;7.39;76.22
81511;BME280;70931;48.796;8.440;2023-12-22T03:12:56;96221.94;;;7.30;76.32
81511;BME280;70931;48.796;8.440;2023-12-22T03:15:21;96225.19;;;7.17;76.45
81511;BME280;70931;48.796;8.440;2023-12-22T03:17:46;96206.66;;;7.09;77.10
81511;BME280;70931;48.796;8.440;2023-12-22T03:20:12;96218.38;;;7.45;77.16
81511;BME280;70931;48.796;8.440;2023-12-22T03:22:37;96224.72;;;7.14;78.29
81511;BME280;70931;48.796;8.440;2023-12-22T03:25:02;96233.16;;;7.09;78.43
81511;BME280;70931;48.796;8.440;2023-12-22T03:27:28;96235.81;;;7.09;79.14
81511;BME280;70931;48.796;8.440;2023-12-22T03:29:53;96208.31;;;7.10;79.04
81511;BME280;70931;48.796;8.440;2023-12-22T03:32:18;96188.44;;;7.06;78.65
81511;BME280;70931;48.796;8.440;2023-12-22T03:34:43;96206.31;;;7.12;78.22
81511;BME280;70931;48.796;8.440;2023-12-22T03:37:08;96198.56;;;7.33;78.32
81511;BME280;70931;48.796;8.440;2023-12-22T03:39:34;96190.66;;;7.25;79.29
81511;BME280;70931;48.796;8.440;2023-12-22T03:41:59;96193.97;;;7.27;79.10
81511;BME280;70931;48.796;8.440;2023-12-22T03:44:24;96204.00;;;7.40;77.79
81511;BME280;70931;48.796;8.440;2023-12-22T03:46:49;96172.69;;;7.35;77.54
81511;BME280;70931;48.796;8.440;2023-12-22T03:49:14;96192.44;;;7.33;77.70
81511;BME280;70931;48.796;8.440;2023-12-22T03:51:40;96163.88;;;7.12;77.19
81511;BME280;70931;48.796;8.440;2023-12-22T03:54:05;96210.00;;;7.57;77.12
81511;BME280;70931;48.796;8.440;2023-12-22T03:56:30;96211.72;;;7.50;77.35
81511;BME280;70931;48.796;8.440;2023-12-22T03:58:55;96191.50;;;7.49;76.95
81511;BME280;70931;48.796;8.440;2023-12-22T04:01:20;96248.75;;;7.66;76.89
81511;BME280;70931;48.796;8.440;2023-12-22T04:03:46;96195.56;;;7.59;77.20
81511;BME280;70931;48.796;8.440;2023-12-22T04:06:11;96227.38;;;7.36;77.60
81511;BME280;70931;48.796;8.440;2023-12-22T04:08:36;96215.84;;;7.75;76.73
81511;BME280;70931;48.796;8.440;2023-12-22T04:11:01;96236.75;;;7.70;76.79
81511;BME280;70931;48.796;8.440;2023-12-22T04:13:27;96268.03;;;7.60;78.21
81511;BME280;70931;48.796;8.440;2023-12-22T04:15:52;96235.72;;;7.56;79.39
81511;BME280;70931;48.796;8.440;2023-12-22T04:18:17;96233.03;;;7.33;80.66
81511;BME280;70931;48.796;8.440;2023-12-22T04:20:42;96243.09;;;7.15;81.74
81511;BME280;70931;48.796;8.440;2023-12-22T04:23:08;96264.78;;;7.19;82.24
81511;BME280;70931;48.796;8.440;2023-12-22T04:25:33;96251.50;;;6.88;81.04
81511;BME280;70931;48.796;8.440;2023-12-22T04:27:58;96246.69;;;7.22;81.17
81511;BME280;70931;48.796;8.440;2023-12-22T04:30:23;96253.38;;;7.10;82.15
81511;BME280;70931;48.796;8.440;2023-12-22T04:32:48;96257.59;;;6.97;82.58
81511;BME280;70931;48.796;8.440;2023-12-22T04:35:14;96283.56;;;7.01;82.20
81511;BME280;70931;48.796;8.440;2023-12-22T04:37:39;96262.66;;;7.06;81.56
81511;BME280;70931;48.796;8.440;2023-12-22T04:40:04;96244.00;;;7.00;81.75
81511;BME280;70931;48.796;8.440;2023-12-22T04:42:30;96248.38;;;7.15;82.22
81511;BME280;70931;48.796;8.440;2023-12-22T04:44:55;96263.94;;;7.18;81.73
81511;BME280;70931;48.796;8.440;2023-12-22T04:47:20;96253.34;;;7.18;80.65
81511;BME280;70931;48.796;8.440;2023-12-22T04:49:46;96278.69;;;7.21;80.40
81511;BME280;70931;48.796;8.440;2023-12-22T04:52:11;96274.00;;;7.31;80.86
81511;BME280;70931;48.796;8.440;2023-12-22T04:54:37;96240.38;;;7.23;80.16
81511;BME280;70931;48.796;8.440;2023-12-22T04:57:03;96254.91;;;7.35;81.05
81511;BME280;70931;48.796;8.440;2023-12-22T04:59:29;96222.66;;;6.93;79.52
81511;BME280;70931;48.796;8.440;2023-12-22T05:01:54;96248.53;;;7.22;79.64
81511;BME280;70931;48.796;8.440;2023-12-22T05:04:19;96243.78;;;7.09;80.03
81511;BME280;70931;48.796;8.440;2023-12-22T05:06:44;96249.59;;;7.35;78.82
81511;BME280;70931;48.796;8.440;2023-12-22T05:09:09;96238.16;;;7.35;78.79
81511;BME280;70931;48.796;8.440;2023-12-22T05:11:35;96255.59;;;7.29;79.50
81511;BME280;70931;48.796;8.440;2023-12-22T05:14:00;96259.63;;;7.25;78.86
81511;BME280;70931;48.796;8.440;2023-12-22T05:16:25;96286.38;;;7.38;78.21
81511;BME280;70931;48.796;8.440;2023-12-22T05:18:50;96257.06;;;7.40;77.69
81511;BME280;70931;48.796;8.440;2023-12-22T05:21:16;96258.69;;;7.41;78.27
81511;BME280;70931;48.796;8.440;2023-12-22T05:23:41;96266.72;;;7.56;77.51
81511;BME280;70931;48.796;8.440;2023-12-22T05:26:06;96235.75;;;7.25;77.42
81511;BME280;70931;48.796;8.440;2023-12-22T05:28:32;96229.94;;;7.53;78.16
81511;BME280;70931;48.796;8.440;2023-12-22T05:30:57;96269.44;;;7.47;77.97
81511;BME280;70931;48.796;8.440;2023-12-22T05:33:22;96268.84;;;7.37;78.10
81511;BME280;70931;48.796;8.440;2023-12-22T05:35:48;96274.94;;;7.38;77.91
81511;BME280;70931;48.796;8.440;2023-12-22T05:38:13;96261.69;;;7.38;78.22
81511;BME280;70931;48.796;8.440;2023-12-22T05:40:38;96276.41;;;7.40;77.63
81511;BME280;70931;48.796;8.440;2023-12-22T05:43:03;96289.81;;;7.47;78.23
81511;BME280;70931;48.796;8.440;2023-12-22T05:45:28;96326.22;;;7.30;77.52
81511;BME280;70931;48.796;8.440;2023-12-22T05:47:54;96321.22;;;7.35;77.69
81511;BME280;70931;48.796;8.440;2023-12-22T05:50:19;96324.00;;;7.42;77.97
81511;BME280;70931;48.796;8.440;2023-12-22T05:52:44;96334.63;;;7.42;77.57
81511;BME280;70931;48.796;8.440;2023-12-22T05:55:09;96327.78;;;7.47;77.20
81511;BME280;70931;48.796;8.440;2023-12-22T05:57:35;96290.75;;;7.31;77.34
81511;BME280;70931;48.796;8.440;2023-12-22T06:00:00;96325.78;;;7.50;76.04
81511;BME280;70931;48.796;8.440;2023-12-22T06:02:25;96329.69;;;7.62;76.31
81511;BME280;70931;48.796;8.440;2023-12-22T06:04:50;96324.84;;;7.42;76.82
81511;BME280;70931;48.796;8.440;2023-12-22T06:07:16;96378.56;;;7.36;76.54
81511;BME280;70931;48.796;8.440;2023-12-22T06:09:41;96370.03;;;7.49;76.19
81511;BME280;70931;48.796;8.440;2023-12-22T06:12:06;96341.41;;;7.44;77.58
81511;BME280;70931;48.796;8.440;2023-12-22T06:14:32;96337.69;;;7.54;76.93
81511;BME280;70931;48.796;8.440;2023-12-22T06:16:57;96292.88;;;7.36;76.39
81511;BME280;70931;48.796;8.440;2023-12-22T06:19:22;96338.66;;;7.61;77.20
81511;BME280;70931;48.796;8.440;2023-12-22T06:21:47;96346.59;;;7.69;77.20
81511;BME280;70931;48.796;8.440;2023-12-22T06:24:13;96321.59;;;7.55;76.99
81511;BME280;70931;48.796;8.440;2023-12-22T06:26:38;96311.81;;;7.56;76.99
81511;BME280;70931;48.796;8.440;2023-12-22T06:29:03;96336.38;;;7.50;76.90
81511;BME280;70931;48.796;8.440;2023-12-22T06:31:28;96348.13;;;7.63;76.92
81511;BME280;70931;48.796;8.440;2023-12-22T06:33:54;96305.28;;;7.35;76.71
81511;BME280;70931;48.796;8.440;2023-12-22T06:38:44;96351.63;;;7.56;76.24
81511;BME280;70931;48.796;8.440;2023-12-22T06:41:21;96326.13;;;7.46;77.91
81511;BME280;70931;48.796;8.440;2023-12-22T06:43:46;96352.59;;;7.63;78.31
81511;BME280;70931;48.796;8.440;2023-12-22T06:46:15;96345.72;;;7.45;79.05
81511;BME280;70931;48.796;8.440;2023-12-22T06:48:41;96379.16;;;7.46;79.61
81511;BME280;70931;48.796;8.440;2023-12-22T06:51:06;96316.97;;;7.18;77.75
81511;BME280;70931;48.796;8.440;2023-12-22T06:53:31;96316.56;;;7.37;79.37
81511;BME280;70931;48.796;8.440;2023-12-22T06:55:56;96342.84;;;7.16;80.42
81511;BME280;70931;48.796;8.440;2023-12-22T06:58:21;96359.97;;;7.44;79.15
81511;BME280;70931;48.796;8.440;2023-12-22T07:00:47;96331.59;;;7.14;79.94
81511;BME280;70931;48.796;8.440;2023-12-22T07:03:12;96323.31;;;7.09;80.91
81511;BME280;70931;48.796;8.440;2023-12-22T07:05:37;96343.78;;;7.31;80.44
81511;BME280;70931;48.796;8.440;2023-12-22T07:08:03;96348.22;;;7.39;81.10
81511;BME280;70931;48.796;8.440;2023-12-22T07:10:28;96316.56;;;6.99;81.94
81511;BME280;70931;48.796;8.440;2023-12-22T07:12:53;96342.81;;;7.24;81.81
81511;BME280;70931;48.796;8.440;2023-12-22T07:15:18;96362.41;;;7.07;82.38
81511;BME280;70931;48.796;8.440;2023-12-22T07:17:43;96321.84;;;6.99;82.63
81511;BME280;70931;48.796;8.440;2023-12-22T07:20:09;96340.28;;;6.84;83.86
81511;BME280;70931;48.796;8.440;2023-12-22T07:22:35;96344.59;;;6.85;84.32
81511;BME280;70931;48.796;8.440;2023-12-22T07:25:00;96383.69;;;6.91;83.14
81511;BME280;70931;48.796;8.440;2023-12-22T07:27:25;96340.69;;;7.20;82.86
81511;BME280;70931;48.796;8.440;2023-12-22T07:29:50;96325.38;;;6.91;83.26
81511;BME280;70931;48.796;8.440;2023-12-22T07:32:16;96357.50;;;6.88;82.22
81511;BME280;70931;48.796;8.440;2023-12-22T07:34:41;96332.94;;;7.02;81.34
81511;BME280;70931;48.796;8.440;2023-12-22T07:37:06;96341.59;;;6.88;80.97
81511;BME280;70931;48.796;8.440;2023-12-22T07:39:32;96348.19;;;7.08;80.67
81511;BME280;70931;48.796;8.440;2023-12-22T07:41:57;96331.59;;;7.14;79.45
81511;BME280;70931;48.796;8.440;2023-12-22T07:44:22;96361.75;;;7.13;79.86
81511;BME280;70931;48.796;8.440;2023-12-22T07:46:58;96396.53;;;7.18;79.68
81511;BME280;70931;48.796;8.440;2023-12-22T07:49:23;96407.97;;;7.19;79.26
81511;BME280;70931;48.796;8.440;2023-12-22T07:51:48;96372.97;;;7.31;78.23
81511;BME280;70931;48.796;8.440;2023-12-22T07:54:13;96369.31;;;7.24;78.04
81511;BME280;70931;48.796;8.440;2023-12-22T07:56:39;96359.69;;;7.31;78.52
81511;BME280;70931;48.796;8.440;2023-12-22T07:59:04;96372.78;;;7.33;77.08
81511;BME280;70931;48.796;8.440;2023-12-22T08:01:29;96375.59;;;7.31;77.25
81511;BME280;70931;48.796;8.440;2023-12-22T08:03:54;96361.75;;;7.52;78.06
81511;BME280;70931;48.796;8.440;2023-12-22T08:06:19;96421.56;;;7.63;78.44
81511;BME280;70931;48.796;8.440;2023-12-22T08:08:45;96415.34;;;7.39;79.80
81511;BME280;70931;48.796;8.440;2023-12-22T08:11:10;96435.22;;;7.52;79.53
81511;BME280;70931;48.796;8.440;2023-12-22T08:13:35;96413.84;;;7.45;79.00
81511;BME280;70931;48.796;8.440;2023-12-22T08:16:00;96420.66;;;7.39;80.44
81511;BME280;70931;48.796;8.440;2023-12-22T08:18:26;96414.63;;;7.54;80.16
81511;BME280;70931;48.796;8.440;2023-12-22T08:20:51;96428.06;;;7.52;81.81
81511;BME280;70931;48.796;8.440;2023-12-22T08:23:16;96423.13;;;7.41;81.50
81511;BME280;70931;48.796;8.440;2023-12-22T08:25:41;96448.88;;;7.24;82.93
81511;BME280;70931;48.796;8.440;2023-12-22T08:28:07;96425.19;;;7.23;81.00
81511;BME280;70931;48.796;8.440;2023-12-22T08:30:32;96422.50;;;7.31;81.12
81511;BME280;70931;48.796;8.440;2023-12-22T08:32:57;96457.78;;;7.47;81.66
81511;BME280;70931;48.796;8.440;2023-12-22T08:35:22;96463.75;;;7.41;79.67
81511;BME280;70931;48.796;8.440;2023-12-22T08:37:47;96459.44;;;7.40;78.62
81511;BME280;70931;48.796;8.440;2023-12-22T08:40:13;96444.88;;;7.36;79.49
81511;BME280;70931;48.796;8.440;2023-12-22T08:42:38;96447.16;;;7.47;78.94
81511;BME280;70931;48.796;8.440;2023-12-22T08:45:04;96444.78;;;7.61;78.85
81511;BME280;70931;48.796;8.440;2023-12-22T08:47:29;96454.84;;;7.34;78.80
81511;BME280;70931;48.796;8.440;2023-12-22T08:49:54;96451.81;;;7.45;78.50
81511;BME280;70931;48.796;8.440;2023-12-22T08:52:20;96467.72;;;7.45;78.54
81511;BME280;70931;48.796;8.440;2023-12-22T08:54:45;96454.78;;;7.51;77.38
81511;BME280;70931;48.796;8.440;2023-12-22T08:57:10;96407.09;;;7.34;77.24
81511;BME280;70931;48.796;8.440;2023-12-22T08:59:35;96439.16;;;7.56;76.69
81511;BME280;70931;48.796;8.440;2023-12-22T09:02:00;96455.25;;;7.62;77.07
81511;BME280;70931;48.796;8.440;2023-12-22T09:04:26;96395.78;;;7.40;76.74
81511;BME280;70931;48.796;8.440;2023-12-22T09:06:51;96440.03;;;7.48;76.79
81511;BME280;70931;48.796;8.440;2023-12-22T09:09:17;96463.22;;;7.54;76.77
81511;BME280;70931;48.796;8.440;2023-12-22T09:11:42;96441.47;;;7.59;76.87
81511;BME280;70931;48.796;8.440;2023-12-22T09:14:07;96442.03;;;7.85;75.92
81511;BME280;70931;48.796;8.440;2023-12-22T09:16:33;96430.19;;;7.65;77.00
81511;BME280;70931;48.796;8.440;2023-12-22T09:18:58;96435.28;;;7.74;75.77
81511;BME280;70931;48.796;8.440;2023-12-22T09:21:23;96420.06;;;7.68;75.53
81511;BME280;70931;48.796;8.440;2023-12-22T09:23:48;96440.44;;;7.68;76.21
81511;BME280;70931;48.796;8.440;2023-12-22T09:26:14;96385.25;;;7.16;75.91
81511;BME280;70931;48.796;8.440;2023-12-22T09:28:40;96446.59;;;7.68;75.97
81511;BME280;70931;48.796;8.440;2023-12-22T09:31:09;96454.06;;;7.65;76.15
81511;BME280;70931;48.796;8.440;2023-12-22T09:33:34;96413.78;;;7.61;75.55
81511;BME280;70931;48.796;8.440;2023-12-22T09:36:00;96420.06;;;7.68;76.44
81511;BME280;70931;48.796;8.440;2023-12-22T09:38:25;96434.59;;;7.80;75.15
81511;BME280;70931;48.796;8.440;2023-12-22T09:40:50;96420.84;;;7.77;75.53
81511;BME280;70931;48.796;8.440;2023-12-22T09:43:16;96418.44;;;7.59;74.74
81511;BME280;70931;48.796;8.440;2023-12-22T09:45:45;96439.81;;;7.96;74.99
81511;BME280;70931;48.796;8.440;2023-12-22T09:48:12;96411.91;;;7.70;75.81
81511;BME280;70931;48.796;8.440;2023-12-22T09:50:38;96411.72;;;7.79;74.17
81511;BME280;70931;48.796;8.440;2023-12-22T09:53:05;96405.50;;;7.56;74.39
81511;BME280;70931;48.796;8.440;2023-12-22T09:55:31;96415.44;;;7.93;74.18
81511;BME280;70931;48.796;8.440;2023-12-22T09:57:58;96397.09;;;7.83;74.75
81511;BME280;70931;48.796;8.440;2023-12-22T10:00:25;96404.31;;;7.97;74.98
81511;BME280;70931;48.796;8.440;2023-12-22T10:02:52;96418.94;;;7.93;74.91
81511;BME280;70931;48.796;8.440;2023-12-22T10:05:17;96414.50;;;7.86;75.75
81511;BME280;70931;48.796;8.440;2023-12-22T10:07:44;96426.25;;;7.91;76.66
81511;BME280;70931;48.796;8.440;2023-12-22T10:10:11;96426.06;;;7.93;76.81
81511;BME280;70931;48.796;8.440;2023-12-22T10:12:38;96423.47;;;7.85;77.41
81511;BME280;70931;48.796;8.440;2023-12-22T10:15:05;96398.06;;;7.52;77.99
81511;BME280;70931;48.796;8.440;2023-12-22T10:17:31;96409.25;;;7.70;79.23
81511;BME280;70931;48.796;8.440;2023-12-22T10:19:56;96392.81;;;7.35;80.92
81511;BME280;70931;48.796;8.440;2023-12-22T10:22:22;96435.53;;;7.57;80.58
81511;BME280;70931;48.796;8.440;2023-12-22T10:24:47;96430.78;;;7.36;81.67
81511;BME280;70931;48.796;8.440;2023-12-22T10:27:14;96395.31;;;7.37;82.83
81511;BME280;70931;48.796;8.440;2023-12-22T10:29:39;96425.97;;;7.39;82.41
81511;BME280;70931;48.796;8.440;2023-12-22T10:32:05;96416.19;;;7.40;83.14
81511;BME280;70931;48.796;8.440;2023-12-22T10:34:31;96382.75;;;7.23;83.57
81511;BME280;70931;48.796;8.440;2023-12-22T10:36:58;96412.41;;;7.34;83.58
81511;BME280;70931;48.796;8.440;2023-12-22T10:39:27;96395.44;;;7.43;83.79
81511;BME280;70931;48.796;8.440;2023-12-22T10:41:52;96396.50;;;7.26;84.37
81511;BME280;70931;48.796;8.440;2023-12-22T10:44:17;96405.78;;;7.30;83.83
81511;BME280;70931;48.796;8.440;2023-12-22T10:46:43;96376.28;;;7.25;84.19
81511;BME280;70931;48.796;8.440;2023-12-22T10:49:08;96409.13;;;7.16;85.05
81511;BME280;70931;48.796;8.440;2023-12-22T10:51:33;96393.19;;;7.24;83.38
81511;BME280;70931;48.796;8.440;2023-12-22T10:53:59;96387.91;;;7.16;85.39
81511;BME280;70931;48.796;8.440;2023-12-22T10:56:28;96386.78;;;7.11;85.46
81511;BME280;70931;48.796;8.440;2023-12-22T10:58:53;96340.41;;;6.99;85.92
81511;BME280;70931;48.796;8.440;2023-12-22T11:01:20;96390.75;;;7.07;85.54
81511;BME280;70931;48.796;8.440;2023-12-22T11:03:48;96372.03;;;7.08;86.99
81511;BME280;70931;48.796;8.440;2023-12-22T11:06:15;96342.53;;;7.11;86.43
81511;BME280;70931;48.796;8.440;2023-12-22T11:08:43;96357.75;;;7.17;86.75
81511;BME280;70931;48.796;8.440;2023-12-22T11:11:30;96367.34;;;7.18;85.47
81511;BME280;70931;48.796;8.440;2023-12-22T11:13:59;96346.69;;;6.98;86.91
81511;BME280;70931;48.796;8.440;2023-12-22T11:16:27;96354.63;;;7.14;86.35
81511;BME280;70931;48.796;8.440;2023-12-22T11:18:53;96373.81;;;7.16;86.38
81511;BME280;70931;48.796;8.440;2023-12-22T11:21:21;96334.13;;;7.00;87.58
81511;BME280;70931;48.796;8.440;2023-12-22T11:23:47;96344.56;;;6.93;87.56
81511;BME280;70931;48.796;8.440;2023-12-22T11:26:15;96328.28;;;7.04;86.86
81511;BME280;70931;48.796;8.440;2023-12-22T11:28:41;96342.47;;;7.27;86.71
81511;BME280;70931;48.796;8.440;2023-12-22T11:31:09;96298.84;;;6.99;87.73
81511;BME280;70931;48.796;8.440;2023-12-22T11:33:36;96301.66;;;6.89;88.08
81511;BME280;70931;48.796;8.440;2023-12-22T11:36:03;96331.25;;;7.09;87.98
81511;BME280;70931;48.796;8.440;2023-12-22T11:38:28;96345.19;;;7.03;88.57
81511;BME280;70931;48.796;8.440;2023-12-22T11:40:54;96298.31;;;7.04;88.60
81511;BME280;70931;48.796;8.440;2023-12-22T11:43:20;96290.69;;;7.09;89.10
81511;BME280;70931;48.796;8.440;2023-12-22T11:45:49;96304.25;;;7.14;88.17
81511;BME280;70931;48.796;8.440;2023-12-22T11:48:14;96280.88;;;7.09;89.38
81511;BME280;70931;48.796;8.440;2023-12-22T11:50:39;96280.97;;;6.93;89.57
81511;BME280;70931;48.796;8.440;2023-12-22T11:53:25;96246.41;;;7.09;89.14
81511;BME280;70931;48.796;8.440;2023-12-22T11:56:00;96280.19;;;7.15;89.27
81511;BME280;70931;48.796;8.440;2023-12-22T12:01:05;96276.03;;;7.21;89.02
81511;BME280;70931;48.796;8.440;2023-12-22T12:03:31;96255.63;;;7.52;88.10
81511;BME280;70931;48.796;8.440;2023-12-22T12:08:51;96249.69;;;7.19;89.66
81511;BME280;70931;48.796;8.440;2023-12-22T12:11:17;96270.56;;;7.22;89.70
81511;BME280;70931;48.796;8.440;2023-12-22T12:13:45;96272.53;;;7.28;89.17
81511;BME280;70931;48.796;8.440;2023-12-22T12:16:12;96234.66;;;7.42;89.49
81511;BME280;70931;48.796;8.440;2023-12-22T12:18:38;96236.63;;;7.40;89.00
81511;BME280;70931;48.796;8.440;2023-12-22T12:21:09;96249.72;;;7.42;89.79
81511;BME280;70931;48.796;8.440;2023-12-22T12:23:35;96239.97;;;7.42;90.29
81511;BME280;70931;48.796;8.440;2023-12-22T12:26:01;96234.94;;;7.47;89.31
81511;BME280;70931;48.796;8.440;2023-12-22T12:28:28;96228.88;;;7.39;90.44
81511;BME280;70931;48.796;8.440;2023-12-22T12:30:58;96195.78;;;7.27;90.46
81511;BME280;70931;48.796;8.440;2023-12-22T12:33:24;96268.25;;;7.50;89.64
81511;BME280;70931;48.796;8.440;2023-12-22T12:35:52;96245.97;;;7.59;89.54
81511;BME280;70931;48.796;8.440;2023-12-22T12:38:21;96208.91;;;7.51;89.56
81511;BME280;70931;48.796;8.440;2023-12-22T12:40:46;96216.31;;;7.56;90.20
81511;BME280;70931;48.796;8.440;2023-12-22T12:43:15;96209.19;;;7.56;89.81
81511;BME280;70931;48.796;8.440;2023-12-22T12:45:40;96207.06;;;7.52;89.53
81511;BME280;70931;48.796;8.440;2023-12-22T12:48:05;96224.47;;;7.54;90.40
81511;BME280;70931;48.796;8.440;2023-12-22T12:50:31;96197.31;;;7.44;90.06
81511;BME280;70931;48.796;8.440;2023-12-22T12:52:56;96239.84;;;7.59;89.96
81511;BME280;70931;48.796;8.440;2023-12-22T12:55:23;96237.25;;;7.73;88.51
81511;BME280;70931;48.796;8.440;2023-12-22T12:57:49;96244.91;;;7.68;90.49
81511;BME280;70931;48.796;8.440;2023-12-22T13:00:15;96238.84;;;7.60;89.68
81511;BME280;70931;48.796;8.440;2023-12-22T13:02:40;96230.69;;;7.84;89.65
81511;BME280;70931;48.796;8.440;2023-12-22T13:05:06;96218.66;;;7.73;90.41
81511;BME280;70931;48.796;8.440;2023-12-22T13:07:31;96198.09;;;7.53;90.15
81511;BME280;70931;48.796;8.440;2023-12-22T13:09:57;96257.53;;;7.89;89.67